sensor_id;sensor_type;location;lat;lon;timestamp;P1;durP1;ratioP1;P2;durP2;ratioP2
17347;SDS011;8791;50.876;4.342;2022-08-11T00:01:37;16.17;;;2.70;;
17347;SDS011;8791;50.876;4.342;2022-08-11T00:04:12;3.22;;;2.00;;
17347;SDS011;8791;50.876;4.342;2022-08-11T00:06:41;6.95;;;1.55;;
17347;SDS011;8791;50.876;4.342;2022-08-11T00:09:12;6.15;;;1.98;;
17347;SDS011;8791;50.876;4.342;2022-08-11T00:11:43;2.28;;;1.98;;
17347;SDS011;8791;50.876;4.342;2022-08-11T00:14:13;3.45;;;2.00;;
17347;SDS011;8791;50.876;4.342;2022-08-11T00:16:43;6.70;;;2.22;;
17347;SDS011;8791;50.876;4.342;2022-08-11T00:19:21;4.85;;;1.65;;
17347;SDS011;8791;50.876;4.342;2022-08-11T00:21:49;8.00;;;1.75;;
17347;SDS011;8791;50.876;4.342;2022-08-11T00:24:17;5.43;;;1.80;;
17347;SDS011;8791;50.876;4.342;2022-08-11T00:26:48;2.72;;;1.90;;
17347;SDS011;8791;50.876;4.342;2022-08-11T00:29:16;1.70;;;1.60;;
17347;SDS011;8791;50.876;4.342;2022-08-11T00:31:44;2.30;;;1.67;;
17347;SDS011;8791;50.876;4.342;2022-08-11T00:34:15;5.10;;;1.75;;
17347;SDS011;8791;50.876;4.342;2022-08-11T00:36:49;3.95;;;2.13;;
17347;SDS011;8791;50.876;4.342;2022-08-11T00:39:19;6.43;;;2.00;;
17347;SDS011;8791;50.876;4.342;2022-08-11T00:41:54;4.63;;;1.90;;
17347;SDS011;8791;50.876;4.342;2022-08-11T00:44:35;2.45;;;1.88;;
17347;SDS011;8791;50.876;4.342;2022-08-11T00:47:13;2.10;;;1.90;;
17347;SDS011;8791;50.876;4.342;2022-08-11T00:49:51;3.17;;;2.00;;
17347;SDS011;8791;50.876;4.342;2022-08-11T00:52:35;7.43;;;1.90;;
17347;SDS011;8791;50.876;4.342;2022-08-11T00:58:28;3.15;;;1.98;;
17347;SDS011;8791;50.876;4.342;2022-08-11T01:01:26;4.55;;;1.95;;
17347;SDS011;8791;50.876;4.342;2022-08-11T01:04:22;2.33;;;1.63;;
17347;SDS011;8791;50.876;4.342;2022-08-11T01:13:33;10.07;;;2.10;;
17347;SDS011;8791;50.876;4.342;2022-08-11T01:16:33;3.58;;;1.83;;
17347;SDS011;8791;50.876;4.342;2022-08-11T01:22:36;5.18;;;2.03;;
17347;SDS011;8791;50.876;4.342;2022-08-11T01:35:05;6.20;;;2.45;;
17347;SDS011;8791;50.876;4.342;2022-08-11T01:44:44;4.35;;;2.40;;
17347;SDS011;8791;50.876;4.342;2022-08-11T01:47:41;10.75;;;1.92;;
17347;SDS011;8791;50.876;4.342;2022-08-11T01:50:49;8.35;;;2.10;;
17347;SDS011;8791;50.876;4.342;2022-08-11T01:53:29;10.35;;;2.03;;
17347;SDS011;8791;50.876;4.342;2022-08-11T01:56:11;8.65;;;2.13;;
17347;SDS011;8791;50.876;4.342;2022-08-11T02:01:44;5.07;;;1.90;;
17347;SDS011;8791;50.876;4.342;2022-08-11T02:04:39;2.78;;;2.10;;
17347;SDS011;8791;50.876;4.342;2022-08-11T02:07:17;7.20;;;2.65;;
17347;SDS011;8791;50.876;4.342;2022-08-11T02:09:59;6.07;;;2.72;;
17347;SDS011;8791;50.876;4.342;2022-08-11T02:12:50;2.35;;;2.15;;
17347;SDS011;8791;50.876;4.342;2022-08-11T02:15:23;13.27;;;2.60;;
17347;SDS011;8791;50.876;4.342;2022-08-11T02:17:57;5.00;;;2.17;;
17347;SDS011;8791;50.876;4.342;2022-08-11T02:20:31;10.30;;;2.10;;
17347;SDS011;8791;50.876;4.342;2022-08-11T02:23:23;8.10;;;2.22;;
17347;SDS011;8791;50.876;4.342;2022-08-11T02:26:07;4.03;;;2.40;;
17347;SDS011;8791;50.876;4.342;2022-08-11T02:28:41;3.83;;;2.10;;
17347;SDS011;8791;50.876;4.342;2022-08-11T02:31:36;8.27;;;2.45;;
17347;SDS011;8791;50.876;4.342;2022-08-11T02:34:34;4.40;;;2.50;;
17347;SDS011;8791;50.876;4.342;2022-08-11T02:37:10;5.57;;;1.95;;
17347;SDS011;8791;50.876;4.342;2022-08-11T02:39:49;5.82;;;2.40;;
17347;SDS011;8791;50.876;4.342;2022-08-11T02:42:27;11.48;;;2.28;;
17347;SDS011;8791;50.876;4.342;2022-08-11T02:45:05;5.20;;;2.63;;
17347;SDS011;8791;50.876;4.342;2022-08-11T02:47:47;5.93;;;2.45;;
17347;SDS011;8791;50.876;4.342;2022-08-11T02:50:49;4.45;;;2.40;;
17347;SDS011;8791;50.876;4.342;2022-08-11T02:53:35;3.15;;;2.22;;
17347;SDS011;8791;50.876;4.342;2022-08-11T02:56:13;3.88;;;2.63;;
17347;SDS011;8791;50.876;4.342;2022-08-11T02:58:48;9.88;;;2.60;;
17347;SDS011;8791;50.876;4.342;2022-08-11T03:01:38;4.18;;;2.22;;
17347;SDS011;8791;50.876;4.342;2022-08-11T03:04:09;10.88;;;2.58;;
17347;SDS011;8791;50.876;4.342;2022-08-11T03:06:45;3.72;;;2.40;;
17347;SDS011;8791;50.876;4.342;2022-08-11T03:09:16;9.32;;;3.13;;
17347;SDS011;8791;50.876;4.342;2022-08-11T03:11:59;5.90;;;2.30;;
17347;SDS011;8791;50.876;4.342;2022-08-11T03:14:52;5.50;;;2.50;;
17347;SDS011;8791;50.876;4.342;2022-08-11T03:17:42;3.55;;;2.15;;
17347;SDS011;8791;50.876;4.342;2022-08-11T03:20:27;4.18;;;2.63;;
17347;SDS011;8791;50.876;4.342;2022-08-11T03:23:03;6.53;;;2.33;;
17347;SDS011;8791;50.876;4.342;2022-08-11T03:25:37;3.58;;;2.67;;
17347;SDS011;8791;50.876;4.342;2022-08-11T03:28:20;3.53;;;2.55;;
17347;SDS011;8791;50.876;4.342;2022-08-11T03:30:56;12.52;;;2.80;;
17347;SDS011;8791;50.876;4.342;2022-08-11T03:33:35;3.97;;;2.80;;
17347;SDS011;8791;50.876;4.342;2022-08-11T03:39:31;5.28;;;2.20;;
17347;SDS011;8791;50.876;4.342;2022-08-11T03:42:15;2.90;;;2.60;;
17347;SDS011;8791;50.876;4.342;2022-08-11T03:44:49;4.65;;;2.75;;
17347;SDS011;8791;50.876;4.342;2022-08-11T03:47:31;5.88;;;2.70;;
17347;SDS011;8791;50.876;4.342;2022-08-11T03:50:11;5.88;;;2.65;;
17347;SDS011;8791;50.876;4.342;2022-08-11T03:52:50;4.93;;;2.63;;
17347;SDS011;8791;50.876;4.342;2022-08-11T03:55:27;14.20;;;3.10;;
17347;SDS011;8791;50.876;4.342;2022-08-11T03:58:27;5.75;;;2.90;;
17347;SDS011;8791;50.876;4.342;2022-08-11T04:04:28;10.75;;;3.10;;
17347;SDS011;8791;50.876;4.342;2022-08-11T04:07:42;9.48;;;3.28;;
17347;SDS011;8791;50.876;4.342;2022-08-11T04:10:36;9.00;;;3.05;;
17347;SDS011;8791;50.876;4.342;2022-08-11T04:13:39;11.32;;;3.50;;
17347;SDS011;8791;50.876;4.342;2022-08-11T04:16:41;14.73;;;3.65;;
17347;SDS011;8791;50.876;4.342;2022-08-11T04:25:31;11.25;;;4.30;;
17347;SDS011;8791;50.876;4.342;2022-08-11T04:31:33;11.98;;;3.70;;
17347;SDS011;8791;50.876;4.342;2022-08-11T04:34:04;10.98;;;3.45;;
17347;SDS011;8791;50.876;4.342;2022-08-11T04:36:56;11.23;;;3.40;;
17347;SDS011;8791;50.876;4.342;2022-08-11T04:40:05;9.30;;;3.60;;
17347;SDS011;8791;50.876;4.342;2022-08-11T04:48:54;5.30;;;3.10;;
17347;SDS011;8791;50.876;4.342;2022-08-11T04:52:04;10.07;;;3.67;;
17347;SDS011;8791;50.876;4.342;2022-08-11T04:55:06;8.77;;;3.00;;
17347;SDS011;8791;50.876;4.342;2022-08-11T04:58:11;7.15;;;3.00;;
17347;SDS011;8791;50.876;4.342;2022-08-11T05:01:05;8.27;;;3.85;;
17347;SDS011;8791;50.876;4.342;2022-08-11T05:04:10;9.15;;;3.05;;
17347;SDS011;8791;50.876;4.342;2022-08-11T05:07:08;7.85;;;3.35;;
17347;SDS011;8791;50.876;4.342;2022-08-11T05:10:00;14.63;;;2.80;;
17347;SDS011;8791;50.876;4.342;2022-08-11T05:12:39;13.52;;;3.55;;
17347;SDS011;8791;50.876;4.342;2022-08-11T05:15:10;11.32;;;3.38;;
17347;SDS011;8791;50.876;4.342;2022-08-11T05:17:57;12.98;;;3.85;;
17347;SDS011;8791;50.876;4.342;2022-08-11T05:20:49;7.78;;;3.70;;
17347;SDS011;8791;50.876;4.342;2022-08-11T05:23:38;21.20;;;3.92;;
17347;SDS011;8791;50.876;4.342;2022-08-11T05:26:25;6.78;;;3.42;;
17347;SDS011;8791;50.876;4.342;2022-08-11T05:29:27;18.10;;;4.20;;
17347;SDS011;8791;50.876;4.342;2022-08-11T05:32:23;10.75;;;4.40;;
17347;SDS011;8791;50.876;4.342;2022-08-11T05:35:12;13.07;;;4.00;;
17347;SDS011;8791;50.876;4.342;2022-08-11T05:37:42;8.20;;;3.75;;
17347;SDS011;8791;50.876;4.342;2022-08-11T05:40:27;19.38;;;4.50;;
17347;SDS011;8791;50.876;4.342;2022-08-11T05:43:13;11.25;;;4.15;;
17347;SDS011;8791;50.876;4.342;2022-08-11T05:46:00;8.32;;;4.93;;
17347;SDS011;8791;50.876;4.342;2022-08-11T05:48:46;12.52;;;4.20;;
17347;SDS011;8791;50.876;4.342;2022-08-11T05:51:32;10.10;;;4.50;;
17347;SDS011;8791;50.876;4.342;2022-08-11T05:54:18;12.82;;;4.95;;
17347;SDS011;8791;50.876;4.342;2022-08-11T05:57:02;14.57;;;4.20;;
17347;SDS011;8791;50.876;4.342;2022-08-11T05:59:30;10.18;;;4.38;;
17347;SDS011;8791;50.876;4.342;2022-08-11T06:02:00;7.97;;;4.63;;
17347;SDS011;8791;50.876;4.342;2022-08-11T06:04:29;5.88;;;4.68;;
17347;SDS011;8791;50.876;4.342;2022-08-11T06:06:58;15.65;;;4.72;;
17347;SDS011;8791;50.876;4.342;2022-08-11T06:09:29;16.70;;;4.65;;
17347;SDS011;8791;50.876;4.342;2022-08-11T06:11:59;17.77;;;5.32;;
17347;SDS011;8791;50.876;4.342;2022-08-11T06:14:28;9.50;;;4.65;;
17347;SDS011;8791;50.876;4.342;2022-08-11T06:16:58;13.48;;;5.10;;
17347;SDS011;8791;50.876;4.342;2022-08-11T06:19:31;14.38;;;5.60;;
17347;SDS011;8791;50.876;4.342;2022-08-11T06:22:00;15.15;;;5.35;;
17347;SDS011;8791;50.876;4.342;2022-08-11T06:24:29;13.15;;;4.70;;
17347;SDS011;8791;50.876;4.342;2022-08-11T06:26:57;9.75;;;4.65;;
17347;SDS011;8791;50.876;4.342;2022-08-11T06:29:25;16.08;;;5.47;;
17347;SDS011;8791;50.876;4.342;2022-08-11T06:31:54;16.30;;;4.60;;
17347;SDS011;8791;50.876;4.342;2022-08-11T06:34:32;19.58;;;4.68;;
17347;SDS011;8791;50.876;4.342;2022-08-11T06:37:13;16.63;;;4.50;;
17347;SDS011;8791;50.876;4.342;2022-08-11T06:39:46;18.63;;;4.90;;
17347;SDS011;8791;50.876;4.342;2022-08-11T06:42:26;15.77;;;4.80;;
17347;SDS011;8791;50.876;4.342;2022-08-11T06:45:00;22.88;;;4.68;;
17347;SDS011;8791;50.876;4.342;2022-08-11T06:47:33;19.60;;;4.97;;
17347;SDS011;8791;50.876;4.342;2022-08-11T06:50:02;17.42;;;4.53;;
17347;SDS011;8791;50.876;4.342;2022-08-11T06:52:49;12.48;;;5.20;;
17347;SDS011;8791;50.876;4.342;2022-08-11T06:55:20;19.17;;;4.22;;
17347;SDS011;8791;50.876;4.342;2022-08-11T06:58:11;16.15;;;4.35;;
17347;SDS011;8791;50.876;4.342;2022-08-11T07:00:59;12.23;;;4.13;;
17347;SDS011;8791;50.876;4.342;2022-08-11T07:03:31;13.98;;;3.90;;
17347;SDS011;8791;50.876;4.342;2022-08-11T07:06:08;15.35;;;4.65;;
17347;SDS011;8791;50.876;4.342;2022-08-11T07:09:02;7.78;;;4.20;;
17347;SDS011;8791;50.876;4.342;2022-08-11T07:15:25;8.88;;;3.50;;
17347;SDS011;8791;50.876;4.342;2022-08-11T07:18:10;12.95;;;3.55;;
17347;SDS011;8791;50.876;4.342;2022-08-11T07:21:06;16.15;;;3.70;;
17347;SDS011;8791;50.876;4.342;2022-08-11T07:23:58;16.40;;;4.28;;
17347;SDS011;8791;50.876;4.342;2022-08-11T07:26:47;15.20;;;4.13;;
17347;SDS011;8791;50.876;4.342;2022-08-11T07:29:36;13.85;;;4.47;;
17347;SDS011;8791;50.876;4.342;2022-08-11T07:32:08;21.23;;;4.07;;
17347;SDS011;8791;50.876;4.342;2022-08-11T07:34:43;16.73;;;4.50;;
17347;SDS011;8791;50.876;4.342;2022-08-11T07:37:15;20.52;;;3.88;;
17347;SDS011;8791;50.876;4.342;2022-08-11T07:39:45;9.45;;;3.88;;
17347;SDS011;8791;50.876;4.342;2022-08-11T07:42:13;14.30;;;3.10;;
17347;SDS011;8791;50.876;4.342;2022-08-11T07:44:43;22.52;;;4.20;;
17347;SDS011;8791;50.876;4.342;2022-08-11T07:47:29;6.97;;;3.42;;
17347;SDS011;8791;50.876;4.342;2022-08-11T07:50:10;10.45;;;3.40;;
17347;SDS011;8791;50.876;4.342;2022-08-11T07:52:57;10.98;;;4.07;;
17347;SDS011;8791;50.876;4.342;2022-08-11T07:55:24;10.77;;;3.80;;
17347;SDS011;8791;50.876;4.342;2022-08-11T07:57:54;14.65;;;4.18;;
17347;SDS011;8791;50.876;4.342;2022-08-11T08:00:42;15.70;;;3.42;;
17347;SDS011;8791;50.876;4.342;2022-08-11T08:03:28;8.90;;;3.58;;
17347;SDS011;8791;50.876;4.342;2022-08-11T08:06:14;6.18;;;3.22;;
17347;SDS011;8791;50.876;4.342;2022-08-11T08:09:00;12.88;;;3.80;;
17347;SDS011;8791;50.876;4.342;2022-08-11T08:11:46;9.75;;;3.10;;
17347;SDS011;8791;50.876;4.342;2022-08-11T08:14:31;24.88;;;3.50;;
17347;SDS011;8791;50.876;4.342;2022-08-11T08:17:17;12.50;;;3.80;;
17347;SDS011;8791;50.876;4.342;2022-08-11T08:20:02;10.77;;;3.40;;
17347;SDS011;8791;50.876;4.342;2022-08-11T08:22:31;12.27;;;3.00;;
17347;SDS011;8791;50.876;4.342;2022-08-11T08:25:01;16.13;;;3.10;;
17347;SDS011;8791;50.876;4.342;2022-08-11T08:27:29;9.15;;;3.45;;
17347;SDS011;8791;50.876;4.342;2022-08-11T08:29:56;17.42;;;3.05;;
17347;SDS011;8791;50.876;4.342;2022-08-11T08:32:41;9.85;;;3.25;;
17347;SDS011;8791;50.876;4.342;2022-08-11T08:35:09;11.93;;;3.25;;
17347;SDS011;8791;50.876;4.342;2022-08-11T08:37:37;9.07;;;2.97;;
17347;SDS011;8791;50.876;4.342;2022-08-11T08:40:07;9.15;;;3.70;;
17347;SDS011;8791;50.876;4.342;2022-08-11T08:42:36;9.52;;;3.40;;
17347;SDS011;8791;50.876;4.342;2022-08-11T08:45:07;13.13;;;3.25;;
17347;SDS011;8791;50.876;4.342;2022-08-11T08:47:36;11.02;;;2.72;;
17347;SDS011;8791;50.876;4.342;2022-08-11T08:50:08;7.95;;;3.08;;
17347;SDS011;8791;50.876;4.342;2022-08-11T08:52:37;8.27;;;3.45;;
17347;SDS011;8791;50.876;4.342;2022-08-11T08:55:10;8.45;;;3.15;;
17347;SDS011;8791;50.876;4.342;2022-08-11T08:57:42;4.65;;;2.95;;
17347;SDS011;8791;50.876;4.342;2022-08-11T09:00:12;6.25;;;2.80;;
17347;SDS011;8791;50.876;4.342;2022-08-11T09:02:41;8.25;;;2.85;;
17347;SDS011;8791;50.876;4.342;2022-08-11T09:05:09;4.45;;;3.03;;
17347;SDS011;8791;50.876;4.342;2022-08-11T09:07:36;8.95;;;2.63;;
17347;SDS011;8791;50.876;4.342;2022-08-11T09:10:05;28.70;;;3.53;;
17347;SDS011;8791;50.876;4.342;2022-08-11T09:12:35;9.25;;;3.00;;
17347;SDS011;8791;50.876;4.342;2022-08-11T09:15:05;5.63;;;2.70;;
17347;SDS011;8791;50.876;4.342;2022-08-11T09:17:36;11.20;;;2.88;;
17347;SDS011;8791;50.876;4.342;2022-08-11T09:20:07;11.00;;;2.90;;
17347;SDS011;8791;50.876;4.342;2022-08-11T09:22:37;16.15;;;3.05;;
17347;SDS011;8791;50.876;4.342;2022-08-11T09:25:24;5.50;;;2.97;;
17347;SDS011;8791;50.876;4.342;2022-08-11T09:28:12;7.22;;;2.60;;
17347;SDS011;8791;50.876;4.342;2022-08-11T09:30:40;3.45;;;2.60;;
17347;SDS011;8791;50.876;4.342;2022-08-11T09:33:08;4.68;;;2.45;;
17347;SDS011;8791;50.876;4.342;2022-08-11T09:35:37;9.68;;;3.40;;
17347;SDS011;8791;50.876;4.342;2022-08-11T09:38:10;10.23;;;2.35;;
17347;SDS011;8791;50.876;4.342;2022-08-11T09:41:11;11.85;;;2.50;;
17347;SDS011;8791;50.876;4.342;2022-08-11T09:43:41;5.40;;;2.53;;
17347;SDS011;8791;50.876;4.342;2022-08-11T09:46:28;10.10;;;2.50;;
17347;SDS011;8791;50.876;4.342;2022-08-11T09:48:57;9.13;;;2.60;;
17347;SDS011;8791;50.876;4.342;2022-08-11T09:51:27;6.40;;;3.10;;
17347;SDS011;8791;50.876;4.342;2022-08-11T09:53:58;13.25;;;2.70;;
17347;SDS011;8791;50.876;4.342;2022-08-11T09:56:25;5.78;;;3.03;;
17347;SDS011;8791;50.876;4.342;2022-08-11T09:59:13;11.07;;;3.05;;
17347;SDS011;8791;50.876;4.342;2022-08-11T10:01:44;7.35;;;2.70;;
17347;SDS011;8791;50.876;4.342;2022-08-11T10:04:13;7.15;;;2.75;;
17347;SDS011;8791;50.876;4.342;2022-08-11T10:06:42;5.72;;;2.50;;
17347;SDS011;8791;50.876;4.342;2022-08-11T10:09:33;12.05;;;2.88;;
17347;SDS011;8791;50.876;4.342;2022-08-11T10:12:05;11.32;;;3.00;;
17347;SDS011;8791;50.876;4.342;2022-08-11T10:14:38;4.38;;;2.58;;
17347;SDS011;8791;50.876;4.342;2022-08-11T10:17:26;3.63;;;2.90;;
17347;SDS011;8791;50.876;4.342;2022-08-11T10:19:58;7.50;;;2.95;;
17347;SDS011;8791;50.876;4.342;2022-08-11T10:22:28;6.78;;;2.78;;
17347;SDS011;8791;50.876;4.342;2022-08-11T10:25:14;6.10;;;2.53;;
17347;SDS011;8791;50.876;4.342;2022-08-11T10:27:59;3.85;;;2.30;;
17347;SDS011;8791;50.876;4.342;2022-08-11T10:30:31;4.25;;;2.88;;
17347;SDS011;8791;50.876;4.342;2022-08-11T10:33:15;4.55;;;2.67;;
17347;SDS011;8791;50.876;4.342;2022-08-11T10:36:02;13.38;;;2.33;;
17347;SDS011;8791;50.876;4.342;2022-08-11T10:38:31;3.35;;;2.45;;
17347;SDS011;8791;50.876;4.342;2022-08-11T10:41:00;4.25;;;2.85;;
17347;SDS011;8791;50.876;4.342;2022-08-11T10:43:45;15.38;;;2.50;;
17347;SDS011;8791;50.876;4.342;2022-08-11T10:46:14;2.83;;;2.50;;
17347;SDS011;8791;50.876;4.342;2022-08-11T10:48:58;7.25;;;2.50;;
17347;SDS011;8791;50.876;4.342;2022-08-11T10:51:26;4.63;;;2.72;;
17347;SDS011;8791;50.876;4.342;2022-08-11T10:54:12;12.32;;;2.70;;
17347;SDS011;8791;50.876;4.342;2022-08-11T10:56:58;36.50;;;4.05;;
17347;SDS011;8791;50.876;4.342;2022-08-11T10:59:43;5.70;;;2.63;;
17347;SDS011;8791;50.876;4.342;2022-08-11T11:02:13;8.48;;;2.45;;
17347;SDS011;8791;50.876;4.342;2022-08-11T11:04:45;5.85;;;2.28;;
17347;SDS011;8791;50.876;4.342;2022-08-11T11:07:26;6.80;;;2.30;;
17347;SDS011;8791;50.876;4.342;2022-08-11T11:10:03;5.47;;;2.40;;
17347;SDS011;8791;50.876;4.342;2022-08-11T11:12:34;9.80;;;2.53;;
17347;SDS011;8791;50.876;4.342;2022-08-11T11:15:22;10.90;;;2.75;;
17347;SDS011;8791;50.876;4.342;2022-08-11T11:18:11;4.45;;;2.30;;
17347;SDS011;8791;50.876;4.342;2022-08-11T11:20:46;14.68;;;2.80;;
17347;SDS011;8791;50.876;4.342;2022-08-11T11:23:17;9.30;;;2.55;;
17347;SDS011;8791;50.876;4.342;2022-08-11T11:25:52;11.00;;;2.28;;
17347;SDS011;8791;50.876;4.342;2022-08-11T11:28:47;6.72;;;2.40;;
17347;SDS011;8791;50.876;4.342;2022-08-11T11:31:46;3.80;;;2.40;;
17347;SDS011;8791;50.876;4.342;2022-08-11T11:34:28;7.88;;;3.03;;
17347;SDS011;8791;50.876;4.342;2022-08-11T11:37:07;7.30;;;2.75;;
17347;SDS011;8791;50.876;4.342;2022-08-11T11:39:36;9.73;;;2.58;;
17347;SDS011;8791;50.876;4.342;2022-08-11T11:42:06;6.65;;;2.42;;
17347;SDS011;8791;50.876;4.342;2022-08-11T11:44:35;8.43;;;3.00;;
17347;SDS011;8791;50.876;4.342;2022-08-11T11:47:04;3.90;;;2.92;;
17347;SDS011;8791;50.876;4.342;2022-08-11T11:49:33;6.28;;;3.30;;
17347;SDS011;8791;50.876;4.342;2022-08-11T11:52:03;7.97;;;2.45;;
17347;SDS011;8791;50.876;4.342;2022-08-11T11:54:33;3.38;;;2.70;;
17347;SDS011;8791;50.876;4.342;2022-08-11T11:57:02;8.05;;;2.88;;
17347;SDS011;8791;50.876;4.342;2022-08-11T11:59:44;2.70;;;2.50;;
17347;SDS011;8791;50.876;4.342;2022-08-11T12:02:29;14.38;;;3.03;;
17347;SDS011;8791;50.876;4.342;2022-08-11T12:04:58;6.03;;;2.92;;
17347;SDS011;8791;50.876;4.342;2022-08-11T12:07:26;9.93;;;2.60;;
17347;SDS011;8791;50.876;4.342;2022-08-11T12:10:11;4.65;;;2.33;;
17347;SDS011;8791;50.876;4.342;2022-08-11T12:12:38;5.22;;;2.30;;
17347;SDS011;8791;50.876;4.342;2022-08-11T12:15:23;15.68;;;2.72;;
17347;SDS011;8791;50.876;4.342;2022-08-11T12:17:50;3.58;;;2.58;;
17347;SDS011;8791;50.876;4.342;2022-08-11T12:20:18;4.38;;;2.33;;
17347;SDS011;8791;50.876;4.342;2022-08-11T12:22:45;6.30;;;2.30;;
17347;SDS011;8791;50.876;4.342;2022-08-11T12:25:30;7.65;;;2.78;;
17347;SDS011;8791;50.876;4.342;2022-08-11T12:28:16;2.70;;;2.33;;
17347;SDS011;8791;50.876;4.342;2022-08-11T12:30:43;5.57;;;2.47;;
17347;SDS011;8791;50.876;4.342;2022-08-11T12:33:11;2.30;;;2.10;;
17347;SDS011;8791;50.876;4.342;2022-08-11T12:35:40;2.95;;;2.00;;
17347;SDS011;8791;50.876;4.342;2022-08-11T12:38:08;7.95;;;1.85;;
17347;SDS011;8791;50.876;4.342;2022-08-11T12:40:35;10.13;;;2.55;;
17347;SDS011;8791;50.876;4.342;2022-08-11T12:43:22;3.17;;;2.10;;
17347;SDS011;8791;50.876;4.342;2022-08-11T12:46:11;4.63;;;2.30;;
17347;SDS011;8791;50.876;4.342;2022-08-11T12:48:43;11.15;;;2.25;;
17347;SDS011;8791;50.876;4.342;2022-08-11T12:51:32;10.07;;;2.00;;
17347;SDS011;8791;50.876;4.342;2022-08-11T12:54:20;4.63;;;2.00;;
17347;SDS011;8791;50.876;4.342;2022-08-11T12:56:54;8.98;;;2.22;;
17347;SDS011;8791;50.876;4.342;2022-08-11T12:59:42;13.20;;;2.25;;
17347;SDS011;8791;50.876;4.342;2022-08-11T13:02:27;6.38;;;1.90;;
17347;SDS011;8791;50.876;4.342;2022-08-11T13:05:12;4.93;;;2.40;;
17347;SDS011;8791;50.876;4.342;2022-08-11T13:07:42;2.63;;;1.95;;
17347;SDS011;8791;50.876;4.342;2022-08-11T13:10:11;4.50;;;1.98;;
17347;SDS011;8791;50.876;4.342;2022-08-11T13:12:59;8.40;;;2.10;;
17347;SDS011;8791;50.876;4.342;2022-08-11T13:15:26;4.22;;;1.90;;
17347;SDS011;8791;50.876;4.342;2022-08-11T13:17:53;3.10;;;1.95;;
17347;SDS011;8791;50.876;4.342;2022-08-11T13:20:21;4.70;;;2.28;;
17347;SDS011;8791;50.876;4.342;2022-08-11T13:22:51;3.33;;;2.05;;
17347;SDS011;8791;50.876;4.342;2022-08-11T13:25:20;9.98;;;2.05;;
17347;SDS011;8791;50.876;4.342;2022-08-11T13:27:50;5.80;;;2.03;;
17347;SDS011;8791;50.876;4.342;2022-08-11T13:30:18;7.20;;;1.90;;
17347;SDS011;8791;50.876;4.342;2022-08-11T13:33:07;10.73;;;2.33;;
17347;SDS011;8791;50.876;4.342;2022-08-11T13:35:35;5.43;;;1.80;;
17347;SDS011;8791;50.876;4.342;2022-08-11T13:38:05;7.53;;;1.98;;
17347;SDS011;8791;50.876;4.342;2022-08-11T13:40:36;3.15;;;1.80;;
17347;SDS011;8791;50.876;4.342;2022-08-11T13:43:03;8.02;;;2.00;;
17347;SDS011;8791;50.876;4.342;2022-08-11T13:45:31;5.00;;;1.67;;
17347;SDS011;8791;50.876;4.342;2022-08-11T13:47:59;5.75;;;1.80;;
17347;SDS011;8791;50.876;4.342;2022-08-11T13:50:28;5.80;;;2.25;;
17347;SDS011;8791;50.876;4.342;2022-08-11T13:53:14;4.13;;;2.40;;
17347;SDS011;8791;50.876;4.342;2022-08-11T13:55:45;3.75;;;1.90;;
17347;SDS011;8791;50.876;4.342;2022-08-11T13:58:17;5.97;;;1.90;;
17347;SDS011;8791;50.876;4.342;2022-08-11T14:00:48;5.20;;;1.83;;
17347;SDS011;8791;50.876;4.342;2022-08-11T14:03:18;7.95;;;2.35;;
17347;SDS011;8791;50.876;4.342;2022-08-11T14:05:51;4.60;;;2.08;;
17347;SDS011;8791;50.876;4.342;2022-08-11T14:08:23;2.63;;;1.90;;
17347;SDS011;8791;50.876;4.342;2022-08-11T14:10:52;7.13;;;2.10;;
17347;SDS011;8791;50.876;4.342;2022-08-11T14:13:39;4.35;;;1.90;;
17347;SDS011;8791;50.876;4.342;2022-08-11T14:16:09;7.72;;;1.70;;
17347;SDS011;8791;50.876;4.342;2022-08-11T14:18:43;4.25;;;2.03;;
17347;SDS011;8791;50.876;4.342;2022-08-11T14:21:13;2.45;;;2.10;;
17347;SDS011;8791;50.876;4.342;2022-08-11T14:24:01;2.55;;;1.92;;
17347;SDS011;8791;50.876;4.342;2022-08-11T14:26:29;3.40;;;1.98;;
17347;SDS011;8791;50.876;4.342;2022-08-11T14:29:04;3.05;;;2.20;;
17347;SDS011;8791;50.876;4.342;2022-08-11T14:31:34;7.25;;;2.55;;
17347;SDS011;8791;50.876;4.342;2022-08-11T14:34:05;3.33;;;2.22;;
17347;SDS011;8791;50.876;4.342;2022-08-11T14:36:35;3.80;;;2.15;;
17347;SDS011;8791;50.876;4.342;2022-08-11T14:39:06;5.22;;;2.45;;
17347;SDS011;8791;50.876;4.342;2022-08-11T14:41:37;3.42;;;3.13;;
17347;SDS011;8791;50.876;4.342;2022-08-11T14:44:22;4.45;;;3.00;;
17347;SDS011;8791;50.876;4.342;2022-08-11T14:47:07;12.45;;;3.70;;
17347;SDS011;8791;50.876;4.342;2022-08-11T14:49:38;7.90;;;2.60;;
17347;SDS011;8791;50.876;4.342;2022-08-11T14:52:07;6.47;;;2.30;;
17347;SDS011;8791;50.876;4.342;2022-08-11T14:54:39;2.92;;;2.20;;
17347;SDS011;8791;50.876;4.342;2022-08-11T14:57:26;21.48;;;5.85;;
17347;SDS011;8791;50.876;4.342;2022-08-11T14:59:59;4.97;;;2.40;;
17347;SDS011;8791;50.876;4.342;2022-08-11T15:02:28;5.00;;;2.42;;
17347;SDS011;8791;50.876;4.342;2022-08-11T15:05:13;3.53;;;2.47;;
17347;SDS011;8791;50.876;4.342;2022-08-11T15:07:41;4.93;;;3.00;;
17347;SDS011;8791;50.876;4.342;2022-08-11T15:10:10;4.00;;;2.38;;
17347;SDS011;8791;50.876;4.342;2022-08-11T15:12:38;5.10;;;2.25;;
17347;SDS011;8791;50.876;4.342;2022-08-11T15:15:07;8.18;;;2.30;;
17347;SDS011;8791;50.876;4.342;2022-08-11T15:17:54;2.97;;;2.00;;
17347;SDS011;8791;50.876;4.342;2022-08-11T15:20:22;5.28;;;2.17;;
17347;SDS011;8791;50.876;4.342;2022-08-11T15:23:07;9.65;;;2.30;;
17347;SDS011;8791;50.876;4.342;2022-08-11T15:25:54;12.63;;;2.25;;
17347;SDS011;8791;50.876;4.342;2022-08-11T15:28:23;8.60;;;2.35;;
17347;SDS011;8791;50.876;4.342;2022-08-11T15:31:12;3.72;;;2.22;;
17347;SDS011;8791;50.876;4.342;2022-08-11T15:34:00;7.50;;;2.20;;
17347;SDS011;8791;50.876;4.342;2022-08-11T15:36:47;4.65;;;2.40;;
17347;SDS011;8791;50.876;4.342;2022-08-11T15:39:34;5.28;;;2.50;;
17347;SDS011;8791;50.876;4.342;2022-08-11T15:42:26;5.68;;;2.30;;
17347;SDS011;8791;50.876;4.342;2022-08-11T15:45:12;3.67;;;2.40;;
17347;SDS011;8791;50.876;4.342;2022-08-11T15:48:01;6.80;;;2.78;;
17347;SDS011;8791;50.876;4.342;2022-08-11T15:50:32;4.15;;;2.20;;
17347;SDS011;8791;50.876;4.342;2022-08-11T15:53:04;3.40;;;2.20;;
17347;SDS011;8791;50.876;4.342;2022-08-11T15:55:37;5.13;;;2.97;;
17347;SDS011;8791;50.876;4.342;2022-08-11T15:58:06;9.98;;;3.47;;
17347;SDS011;8791;50.876;4.342;2022-08-11T16:00:54;6.13;;;2.60;;
17347;SDS011;8791;50.876;4.342;2022-08-11T16:03:41;27.08;;;3.33;;
17347;SDS011;8791;50.876;4.342;2022-08-11T16:06:31;3.10;;;2.80;;
17347;SDS011;8791;50.876;4.342;2022-08-11T16:09:00;8.77;;;2.75;;
17347;SDS011;8791;50.876;4.342;2022-08-11T16:11:30;3.60;;;2.10;;
17347;SDS011;8791;50.876;4.342;2022-08-11T16:14:00;8.77;;;2.47;;
17347;SDS011;8791;50.876;4.342;2022-08-11T16:16:50;5.70;;;2.35;;
17347;SDS011;8791;50.876;4.342;2022-08-11T16:19:17;3.40;;;2.33;;
17347;SDS011;8791;50.876;4.342;2022-08-11T16:21:45;2.75;;;2.20;;
17347;SDS011;8791;50.876;4.342;2022-08-11T16:24:16;5.45;;;2.13;;
17347;SDS011;8791;50.876;4.342;2022-08-11T16:26:45;9.85;;;2.45;;
17347;SDS011;8791;50.876;4.342;2022-08-11T16:29:15;6.25;;;2.03;;
17347;SDS011;8791;50.876;4.342;2022-08-11T16:31:42;2.28;;;2.08;;
17347;SDS011;8791;50.876;4.342;2022-08-11T16:34:30;6.95;;;2.20;;
17347;SDS011;8791;50.876;4.342;2022-08-11T16:37:16;2.35;;;2.10;;
17347;SDS011;8791;50.876;4.342;2022-08-11T16:40:02;8.52;;;2.30;;
17347;SDS011;8791;50.876;4.342;2022-08-11T16:42:30;2.75;;;2.22;;
17347;SDS011;8791;50.876;4.342;2022-08-11T16:45:17;4.13;;;2.05;;
17347;SDS011;8791;50.876;4.342;2022-08-11T16:48:01;2.58;;;1.70;;
17347;SDS011;8791;50.876;4.342;2022-08-11T16:50:31;5.50;;;2.38;;
17347;SDS011;8791;50.876;4.342;2022-08-11T16:53:01;6.03;;;2.35;;
17347;SDS011;8791;50.876;4.342;2022-08-11T16:55:28;6.95;;;2.35;;
17347;SDS011;8791;50.876;4.342;2022-08-11T16:57:57;4.07;;;2.70;;
17347;SDS011;8791;50.876;4.342;2022-08-11T17:00:44;10.23;;;2.28;;
17347;SDS011;8791;50.876;4.342;2022-08-11T17:03:11;6.40;;;2.45;;